Terminal Aerodrome Forecast
Issued by NWS Brownsville, TX

Home | Current Version | Previous Version | Text Only | Print | Product List | Glossary On
Versions: 1 2 3 4 5 6 7 8 9 10 11 12 13 14 15 16 17
389
FTUS44 KBRO 141122
TAFHRL
TAF
KHRL 141122Z 1412/1512 14007KT P6SM SKC
     FM141500 17012KT P6SM SKC
     FM141600 17021G27KT P6SM SKC
     FM150100 16015G21KT P6SM FEW250
     FM150700 17010KT P6SM SCT250
     FM151100 16007KT 6SM BR OVC007=

USA.gov is the U.S. government's official web portal to all federal, state and local government web resources and services.